sensor_id;sensor_type;location;lat;lon;timestamp;P1;durP1;ratioP1;P2;durP2;ratioP2
25345;SDS011;13300;51.032;3.710;2023-03-01T00:01:12;7.55;;;4.90;;
25345;SDS011;13300;51.032;3.710;2023-03-01T00:04:05;8.00;;;4.80;;
25345;SDS011;13300;51.032;3.710;2023-03-01T00:06:36;9.00;;;5.10;;
25345;SDS011;13300;51.032;3.710;2023-03-01T00:09:23;7.88;;;5.18;;
25345;SDS011;13300;51.032;3.710;2023-03-01T00:11:49;8.52;;;5.10;;
25345;SDS011;13300;51.032;3.710;2023-03-01T00:14:20;7.25;;;5.30;;
25345;SDS011;13300;51.032;3.710;2023-03-01T00:16:46;10.23;;;5.03;;
25345;SDS011;13300;51.032;3.710;2023-03-01T00:19:16;7.70;;;5.28;;
25345;SDS011;13300;51.032;3.710;2023-03-01T00:21:52;8.15;;;5.45;;
25345;SDS011;13300;51.032;3.710;2023-03-01T00:24:25;6.68;;;5.20;;
25345;SDS011;13300;51.032;3.710;2023-03-01T00:29:26;8.35;;;5.00;;
25345;SDS011;13300;51.032;3.710;2023-03-01T00:31:55;7.70;;;5.90;;
25345;SDS011;13300;51.032;3.710;2023-03-01T00:34:32;8.60;;;6.00;;
25345;SDS011;13300;51.032;3.710;2023-03-01T00:37:01;8.32;;;5.45;;
25345;SDS011;13300;51.032;3.710;2023-03-01T00:39:30;8.25;;;5.82;;
25345;SDS011;13300;51.032;3.710;2023-03-01T00:41:59;7.72;;;5.93;;
25345;SDS011;13300;51.032;3.710;2023-03-01T00:44:28;8.23;;;6.20;;
25345;SDS011;13300;51.032;3.710;2023-03-01T00:46:59;8.02;;;5.72;;
25345;SDS011;13300;51.032;3.710;2023-03-01T00:49:25;12.32;;;6.47;;
25345;SDS011;13300;51.032;3.710;2023-03-01T00:51:53;11.68;;;6.45;;
25345;SDS011;13300;51.032;3.710;2023-03-01T00:54:21;10.52;;;6.93;;
25345;SDS011;13300;51.032;3.710;2023-03-01T00:56:55;12.55;;;7.70;;
25345;SDS011;13300;51.032;3.710;2023-03-01T00:59:27;13.02;;;7.93;;
25345;SDS011;13300;51.032;3.710;2023-03-01T01:01:56;14.82;;;8.80;;
25345;SDS011;13300;51.032;3.710;2023-03-01T01:04:31;15.07;;;8.20;;
25345;SDS011;13300;51.032;3.710;2023-03-01T01:07:04;17.30;;;9.27;;
25345;SDS011;13300;51.032;3.710;2023-03-01T01:09:31;11.55;;;7.63;;
25345;SDS011;13300;51.032;3.710;2023-03-01T01:12:05;13.10;;;8.10;;
25345;SDS011;13300;51.032;3.710;2023-03-01T01:14:37;12.00;;;7.72;;
25345;SDS011;13300;51.032;3.710;2023-03-01T01:17:05;12.05;;;8.13;;
25345;SDS011;13300;51.032;3.710;2023-03-01T01:19:39;13.75;;;7.93;;
25345;SDS011;13300;51.032;3.710;2023-03-01T01:22:08;15.38;;;8.80;;
25345;SDS011;13300;51.032;3.710;2023-03-01T01:24:34;15.00;;;8.93;;
25345;SDS011;13300;51.032;3.710;2023-03-01T01:27:09;13.55;;;8.43;;
25345;SDS011;13300;51.032;3.710;2023-03-01T01:29:36;12.00;;;7.75;;
25345;SDS011;13300;51.032;3.710;2023-03-01T01:32:07;16.38;;;8.38;;
25345;SDS011;13300;51.032;3.710;2023-03-01T01:34:35;11.90;;;8.20;;
25345;SDS011;13300;51.032;3.710;2023-03-01T01:37:04;11.57;;;7.90;;
25345;SDS011;13300;51.032;3.710;2023-03-01T01:42:00;16.33;;;8.05;;
25345;SDS011;13300;51.032;3.710;2023-03-01T01:44:27;11.55;;;7.80;;
25345;SDS011;13300;51.032;3.710;2023-03-01T01:49:40;12.10;;;8.00;;
25345;SDS011;13300;51.032;3.710;2023-03-01T01:52:14;13.27;;;8.07;;
25345;SDS011;13300;51.032;3.710;2023-03-01T01:54:56;12.38;;;8.40;;
25345;SDS011;13300;51.032;3.710;2023-03-01T01:57:46;13.75;;;8.25;;
25345;SDS011;13300;51.032;3.710;2023-03-01T02:00:19;10.35;;;8.07;;
25345;SDS011;13300;51.032;3.710;2023-03-01T02:02:51;12.60;;;8.98;;
25345;SDS011;13300;51.032;3.710;2023-03-01T02:08:20;14.77;;;8.70;;
25345;SDS011;13300;51.032;3.710;2023-03-01T02:10:56;12.77;;;8.07;;
25345;SDS011;13300;51.032;3.710;2023-03-01T02:13:31;15.88;;;9.05;;
25345;SDS011;13300;51.032;3.710;2023-03-01T02:15:59;12.23;;;9.15;;
25345;SDS011;13300;51.032;3.710;2023-03-01T02:18:28;15.73;;;9.27;;
25345;SDS011;13300;51.032;3.710;2023-03-01T02:23:30;13.25;;;9.35;;
25345;SDS011;13300;51.032;3.710;2023-03-01T02:28:40;17.88;;;10.18;;
25345;SDS011;13300;51.032;3.710;2023-03-01T02:31:19;14.15;;;8.80;;
25345;SDS011;13300;51.032;3.710;2023-03-01T02:34:05;15.35;;;9.70;;
25345;SDS011;13300;51.032;3.710;2023-03-01T02:36:37;15.20;;;10.32;;
25345;SDS011;13300;51.032;3.710;2023-03-01T02:39:17;15.05;;;9.88;;
25345;SDS011;13300;51.032;3.710;2023-03-01T02:41:53;16.25;;;10.27;;
25345;SDS011;13300;51.032;3.710;2023-03-01T02:44:25;14.75;;;10.45;;
25345;SDS011;13300;51.032;3.710;2023-03-01T02:46:55;17.77;;;10.88;;
25345;SDS011;13300;51.032;3.710;2023-03-01T02:55:00;17.60;;;10.98;;
25345;SDS011;13300;51.032;3.710;2023-03-01T02:57:43;20.45;;;11.63;;
25345;SDS011;13300;51.032;3.710;2023-03-01T03:00:14;17.38;;;11.25;;
25345;SDS011;13300;51.032;3.710;2023-03-01T03:02:47;19.00;;;11.68;;
25345;SDS011;13300;51.032;3.710;2023-03-01T03:05:28;17.02;;;11.23;;
25345;SDS011;13300;51.032;3.710;2023-03-01T03:07:59;19.00;;;11.73;;
25345;SDS011;13300;51.032;3.710;2023-03-01T03:10:39;18.55;;;12.20;;
25345;SDS011;13300;51.032;3.710;2023-03-01T03:13:15;17.88;;;11.73;;
25345;SDS011;13300;51.032;3.710;2023-03-01T03:15:55;21.02;;;12.18;;
25345;SDS011;13300;51.032;3.710;2023-03-01T03:18:22;19.30;;;12.05;;
25345;SDS011;13300;51.032;3.710;2023-03-01T03:20:56;15.13;;;11.02;;
25345;SDS011;13300;51.032;3.710;2023-03-01T03:23:43;17.45;;;11.27;;
25345;SDS011;13300;51.032;3.710;2023-03-01T03:26:15;18.70;;;11.50;;
25345;SDS011;13300;51.032;3.710;2023-03-01T03:28:42;15.18;;;10.82;;
25345;SDS011;13300;51.032;3.710;2023-03-01T03:33:42;17.95;;;10.63;;
25345;SDS011;13300;51.032;3.710;2023-03-01T03:36:13;16.33;;;10.93;;
25345;SDS011;13300;51.032;3.710;2023-03-01T03:38:47;18.23;;;11.30;;
25345;SDS011;13300;51.032;3.710;2023-03-01T03:41:19;17.15;;;10.93;;
25345;SDS011;13300;51.032;3.710;2023-03-01T03:43:46;16.98;;;11.00;;
25345;SDS011;13300;51.032;3.710;2023-03-01T03:46:15;20.23;;;11.65;;
25345;SDS011;13300;51.032;3.710;2023-03-01T03:48:53;18.60;;;12.07;;
25345;SDS011;13300;51.032;3.710;2023-03-01T03:51:24;21.63;;;12.43;;
25345;SDS011;13300;51.032;3.710;2023-03-01T03:53:57;19.33;;;11.98;;
25345;SDS011;13300;51.032;3.710;2023-03-01T03:56:23;18.95;;;13.00;;
25345;SDS011;13300;51.032;3.710;2023-03-01T03:58:54;20.08;;;13.00;;
25345;SDS011;13300;51.032;3.710;2023-03-01T04:01:24;21.10;;;12.73;;
25345;SDS011;13300;51.032;3.710;2023-03-01T04:04:17;18.27;;;12.63;;
25345;SDS011;13300;51.032;3.710;2023-03-01T04:06:48;20.42;;;12.55;;
25345;SDS011;13300;51.032;3.710;2023-03-01T04:09:39;19.67;;;13.15;;
25345;SDS011;13300;51.032;3.710;2023-03-01T04:12:15;21.52;;;13.60;;
25345;SDS011;13300;51.032;3.710;2023-03-01T04:14:48;21.38;;;12.95;;
25345;SDS011;13300;51.032;3.710;2023-03-01T04:17:16;24.08;;;14.65;;
25345;SDS011;13300;51.032;3.710;2023-03-01T04:19:48;27.45;;;14.98;;
25345;SDS011;13300;51.032;3.710;2023-03-01T04:22:32;22.00;;;13.70;;
25345;SDS011;13300;51.032;3.710;2023-03-01T04:24:59;23.80;;;14.13;;
25345;SDS011;13300;51.032;3.710;2023-03-01T04:27:50;25.77;;;14.68;;
25345;SDS011;13300;51.032;3.710;2023-03-01T04:30:27;21.13;;;13.52;;
25345;SDS011;13300;51.032;3.710;2023-03-01T04:33:10;22.30;;;13.95;;
25345;SDS011;13300;51.032;3.710;2023-03-01T04:35:48;21.70;;;13.25;;
25345;SDS011;13300;51.032;3.710;2023-03-01T04:38:23;22.25;;;14.05;;
25345;SDS011;13300;51.032;3.710;2023-03-01T04:43:34;25.58;;;13.73;;
25345;SDS011;13300;51.032;3.710;2023-03-01T04:46:02;22.60;;;13.23;;
25345;SDS011;13300;51.032;3.710;2023-03-01T04:48:36;23.10;;;13.05;;
25345;SDS011;13300;51.032;3.710;2023-03-01T04:51:13;24.83;;;14.35;;
25345;SDS011;13300;51.032;3.710;2023-03-01T04:53:43;23.90;;;13.27;;
25345;SDS011;13300;51.032;3.710;2023-03-01T04:56:13;25.97;;;14.70;;
25345;SDS011;13300;51.032;3.710;2023-03-01T04:58:39;22.85;;;13.40;;
25345;SDS011;13300;51.032;3.710;2023-03-01T05:01:17;21.60;;;12.55;;
25345;SDS011;13300;51.032;3.710;2023-03-01T05:03:46;23.27;;;13.48;;
25345;SDS011;13300;51.032;3.710;2023-03-01T05:06:14;19.00;;;12.27;;
25345;SDS011;13300;51.032;3.710;2023-03-01T05:08:54;20.58;;;12.90;;
25345;SDS011;13300;51.032;3.710;2023-03-01T05:11:23;23.30;;;13.73;;
25345;SDS011;13300;51.032;3.710;2023-03-01T05:13:55;22.95;;;12.95;;
25345;SDS011;13300;51.032;3.710;2023-03-01T05:16:25;23.13;;;13.97;;
25345;SDS011;13300;51.032;3.710;2023-03-01T05:18:56;22.25;;;13.60;;
25345;SDS011;13300;51.032;3.710;2023-03-01T05:21:22;21.50;;;13.43;;
25345;SDS011;13300;51.032;3.710;2023-03-01T05:23:51;22.85;;;13.30;;
25345;SDS011;13300;51.032;3.710;2023-03-01T05:26:31;22.77;;;13.40;;
25345;SDS011;13300;51.032;3.710;2023-03-01T05:28:57;22.40;;;12.95;;
25345;SDS011;13300;51.032;3.710;2023-03-01T05:31:42;20.43;;;10.67;;
25345;SDS011;13300;51.032;3.710;2023-03-01T05:34:11;21.55;;;13.15;;
25345;SDS011;13300;51.032;3.710;2023-03-01T05:36:49;22.60;;;13.30;;
25345;SDS011;13300;51.032;3.710;2023-03-01T05:39:37;23.95;;;13.98;;
25345;SDS011;13300;51.032;3.710;2023-03-01T05:42:05;21.15;;;12.70;;
25345;SDS011;13300;51.032;3.710;2023-03-01T05:46:59;22.25;;;12.60;;
25345;SDS011;13300;51.032;3.710;2023-03-01T05:49:25;22.50;;;12.65;;
25345;SDS011;13300;51.032;3.710;2023-03-01T05:51:56;22.48;;;12.48;;
25345;SDS011;13300;51.032;3.710;2023-03-01T05:54:25;21.00;;;13.15;;
25345;SDS011;13300;51.032;3.710;2023-03-01T05:56:56;22.38;;;12.95;;
25345;SDS011;13300;51.032;3.710;2023-03-01T05:59:22;20.88;;;13.23;;
25345;SDS011;13300;51.032;3.710;2023-03-01T06:01:48;22.55;;;13.05;;
25345;SDS011;13300;51.032;3.710;2023-03-01T06:04:21;18.90;;;12.75;;
25345;SDS011;13300;51.032;3.710;2023-03-01T06:06:47;22.17;;;13.35;;
25345;SDS011;13300;51.032;3.710;2023-03-01T06:09:18;23.65;;;13.38;;
25345;SDS011;13300;51.032;3.710;2023-03-01T06:14:15;21.45;;;12.82;;
25345;SDS011;13300;51.032;3.710;2023-03-01T06:16:50;21.50;;;12.35;;
25345;SDS011;13300;51.032;3.710;2023-03-01T06:19:21;20.55;;;12.23;;
25345;SDS011;13300;51.032;3.710;2023-03-01T06:21:47;23.92;;;13.20;;
25345;SDS011;13300;51.032;3.710;2023-03-01T06:24:13;20.20;;;12.63;;
25345;SDS011;13300;51.032;3.710;2023-03-01T06:26:39;19.77;;;12.45;;
25345;SDS011;13300;51.032;3.710;2023-03-01T06:29:05;21.00;;;12.82;;
25345;SDS011;13300;51.032;3.710;2023-03-01T06:31:32;19.45;;;12.18;;
25345;SDS011;13300;51.032;3.710;2023-03-01T06:34:00;22.58;;;12.98;;
25345;SDS011;13300;51.032;3.710;2023-03-01T06:36:27;20.27;;;11.05;;
25345;SDS011;13300;51.032;3.710;2023-03-01T06:38:55;22.02;;;12.88;;
25345;SDS011;13300;51.032;3.710;2023-03-01T06:41:24;21.15;;;11.23;;
25345;SDS011;13300;51.032;3.710;2023-03-01T06:43:50;19.17;;;11.13;;
25345;SDS011;13300;51.032;3.710;2023-03-01T06:46:19;26.08;;;12.15;;
25345;SDS011;13300;51.032;3.710;2023-03-01T06:48:50;20.45;;;11.75;;
25345;SDS011;13300;51.032;3.710;2023-03-01T06:51:16;18.05;;;11.10;;
25345;SDS011;13300;51.032;3.710;2023-03-01T06:53:42;20.00;;;11.35;;
25345;SDS011;13300;51.032;3.710;2023-03-01T06:56:08;21.70;;;11.57;;
25345;SDS011;13300;51.032;3.710;2023-03-01T06:58:45;17.25;;;10.80;;
25345;SDS011;13300;51.032;3.710;2023-03-01T07:01:11;22.30;;;11.52;;
25345;SDS011;13300;51.032;3.710;2023-03-01T07:03:37;18.77;;;10.05;;
25345;SDS011;13300;51.032;3.710;2023-03-01T07:06:03;16.75;;;10.48;;
25345;SDS011;13300;51.032;3.710;2023-03-01T07:08:32;18.95;;;10.20;;
25345;SDS011;13300;51.032;3.710;2023-03-01T07:10:58;14.57;;;10.10;;
25345;SDS011;13300;51.032;3.710;2023-03-01T07:13:29;15.95;;;9.65;;
25345;SDS011;13300;51.032;3.710;2023-03-01T07:15:55;18.73;;;10.20;;
25345;SDS011;13300;51.032;3.710;2023-03-01T07:18:21;14.95;;;9.15;;
25345;SDS011;13300;51.032;3.710;2023-03-01T07:20:49;15.32;;;9.13;;
25345;SDS011;13300;51.032;3.710;2023-03-01T07:23:18;13.27;;;9.00;;
25345;SDS011;13300;51.032;3.710;2023-03-01T07:26:00;13.52;;;8.23;;
25345;SDS011;13300;51.032;3.710;2023-03-01T07:28:31;14.00;;;8.65;;
25345;SDS011;13300;51.032;3.710;2023-03-01T07:31:04;13.43;;;9.00;;
25345;SDS011;13300;51.032;3.710;2023-03-01T07:35:57;17.15;;;11.27;;
25345;SDS011;13300;51.032;3.710;2023-03-01T07:38:35;13.18;;;8.48;;
25345;SDS011;13300;51.032;3.710;2023-03-01T07:41:01;17.02;;;8.85;;
25345;SDS011;13300;51.032;3.710;2023-03-01T07:43:28;11.50;;;8.15;;
25345;SDS011;13300;51.032;3.710;2023-03-01T07:46:03;14.05;;;8.20;;
25345;SDS011;13300;51.032;3.710;2023-03-01T07:48:30;12.23;;;8.20;;
25345;SDS011;13300;51.032;3.710;2023-03-01T07:51:16;14.18;;;8.15;;
25345;SDS011;13300;51.032;3.710;2023-03-01T07:53:47;13.02;;;9.00;;
25345;SDS011;13300;51.032;3.710;2023-03-01T07:59:41;13.02;;;7.95;;
25345;SDS011;13300;51.032;3.710;2023-03-01T08:02:08;15.25;;;8.77;;
25345;SDS011;13300;51.032;3.710;2023-03-01T08:04:43;11.48;;;7.75;;
25345;SDS011;13300;51.032;3.710;2023-03-01T08:07:12;11.75;;;8.13;;
25345;SDS011;13300;51.032;3.710;2023-03-01T08:09:41;10.43;;;7.50;;
25345;SDS011;13300;51.032;3.710;2023-03-01T08:12:24;10.48;;;7.30;;
25345;SDS011;13300;51.032;3.710;2023-03-01T08:14:56;11.68;;;7.43;;
25345;SDS011;13300;51.032;3.710;2023-03-01T08:17:42;10.50;;;7.20;;
25345;SDS011;13300;51.032;3.710;2023-03-01T08:20:13;16.08;;;8.10;;
25345;SDS011;13300;51.032;3.710;2023-03-01T08:22:44;12.23;;;7.45;;
25345;SDS011;13300;51.032;3.710;2023-03-01T08:25:10;10.77;;;7.60;;
25345;SDS011;13300;51.032;3.710;2023-03-01T08:27:36;10.55;;;7.60;;
25345;SDS011;13300;51.032;3.710;2023-03-01T08:30:01;9.95;;;7.10;;
25345;SDS011;13300;51.032;3.710;2023-03-01T08:32:27;9.93;;;6.72;;
25345;SDS011;13300;51.032;3.710;2023-03-01T08:37:24;14.48;;;7.53;;
25345;SDS011;13300;51.032;3.710;2023-03-01T08:39:50;10.73;;;7.10;;
25345;SDS011;13300;51.032;3.710;2023-03-01T08:42:16;9.65;;;7.28;;
25345;SDS011;13300;51.032;3.710;2023-03-01T08:44:41;9.40;;;7.13;;
25345;SDS011;13300;51.032;3.710;2023-03-01T08:47:07;14.40;;;8.63;;
25345;SDS011;13300;51.032;3.710;2023-03-01T08:49:33;11.00;;;7.20;;
25345;SDS011;13300;51.032;3.710;2023-03-01T08:51:59;12.00;;;7.10;;
25345;SDS011;13300;51.032;3.710;2023-03-01T08:54:24;10.60;;;6.80;;
25345;SDS011;13300;51.032;3.710;2023-03-01T08:56:50;10.35;;;7.05;;
25345;SDS011;13300;51.032;3.710;2023-03-01T08:59:16;9.85;;;6.43;;
25345;SDS011;13300;51.032;3.710;2023-03-01T09:01:42;10.00;;;7.28;;
25345;SDS011;13300;51.032;3.710;2023-03-01T09:04:08;10.73;;;7.10;;
25345;SDS011;13300;51.032;3.710;2023-03-01T09:06:35;9.65;;;6.38;;
25345;SDS011;13300;51.032;3.710;2023-03-01T09:09:02;11.30;;;6.88;;
25345;SDS011;13300;51.032;3.710;2023-03-01T09:11:29;11.93;;;7.75;;
25345;SDS011;13300;51.032;3.710;2023-03-01T09:13:55;16.17;;;7.45;;
25345;SDS011;13300;51.032;3.710;2023-03-01T09:16:28;11.48;;;7.38;;
25345;SDS011;13300;51.032;3.710;2023-03-01T09:18:54;12.88;;;7.18;;
25345;SDS011;13300;51.032;3.710;2023-03-01T09:21:23;14.07;;;7.20;;
25345;SDS011;13300;51.032;3.710;2023-03-01T09:23:48;11.63;;;7.53;;
25345;SDS011;13300;51.032;3.710;2023-03-01T09:26:15;11.23;;;7.00;;
25345;SDS011;13300;51.032;3.710;2023-03-01T09:28:46;12.50;;;7.00;;
25345;SDS011;13300;51.032;3.710;2023-03-01T09:31:13;13.02;;;7.13;;
25345;SDS011;13300;51.032;3.710;2023-03-01T09:33:40;11.85;;;7.45;;
25345;SDS011;13300;51.032;3.710;2023-03-01T09:36:08;10.93;;;7.13;;
25345;SDS011;13300;51.032;3.710;2023-03-01T09:38:41;14.82;;;7.88;;
25345;SDS011;13300;51.032;3.710;2023-03-01T09:41:50;11.05;;;6.60;;
25345;SDS011;13300;51.032;3.710;2023-03-01T09:44:05;11.90;;;6.53;;
25345;SDS011;13300;51.032;3.710;2023-03-01T09:46:58;10.93;;;6.72;;
25345;SDS011;13300;51.032;3.710;2023-03-01T09:49:26;9.48;;;6.72;;
25345;SDS011;13300;51.032;3.710;2023-03-01T09:51:57;10.98;;;7.18;;
25345;SDS011;13300;51.032;3.710;2023-03-01T09:54:26;8.68;;;6.47;;
25345;SDS011;13300;51.032;3.710;2023-03-01T10:02:49;12.20;;;6.72;;
25345;SDS011;13300;51.032;3.710;2023-03-01T10:11:13;9.02;;;6.82;;
25345;SDS011;13300;51.032;3.710;2023-03-01T10:13:48;10.80;;;6.38;;
25345;SDS011;13300;51.032;3.710;2023-03-01T10:19:29;9.57;;;6.65;;
25345;SDS011;13300;51.032;3.710;2023-03-01T10:22:07;8.75;;;6.65;;
25345;SDS011;13300;51.032;3.710;2023-03-01T10:24:39;10.40;;;6.60;;
25345;SDS011;13300;51.032;3.710;2023-03-01T10:27:17;9.25;;;6.38;;
25345;SDS011;13300;51.032;3.710;2023-03-01T10:30:12;8.13;;;6.28;;
25345;SDS011;13300;51.032;3.710;2023-03-01T10:32:41;7.75;;;6.00;;
25345;SDS011;13300;51.032;3.710;2023-03-01T10:35:41;10.43;;;6.43;;
25345;SDS011;13300;51.032;3.710;2023-03-01T10:38:05;12.45;;;7.03;;
25345;SDS011;13300;51.032;3.710;2023-03-01T10:42:57;12.25;;;6.35;;
25345;SDS011;13300;51.032;3.710;2023-03-01T10:48:04;8.52;;;5.88;;
25345;SDS011;13300;51.032;3.710;2023-03-01T10:50:33;11.50;;;6.40;;
25345;SDS011;13300;51.032;3.710;2023-03-01T10:53:01;14.07;;;7.03;;
25345;SDS011;13300;51.032;3.710;2023-03-01T10:58:20;14.55;;;6.10;;
25345;SDS011;13300;51.032;3.710;2023-03-01T11:00:51;9.13;;;6.20;;
25345;SDS011;13300;51.032;3.710;2023-03-01T11:03:33;9.40;;;6.80;;
25345;SDS011;13300;51.032;3.710;2023-03-01T11:06:00;7.57;;;6.13;;
25345;SDS011;13300;51.032;3.710;2023-03-01T11:08:32;7.65;;;6.47;;
25345;SDS011;13300;51.032;3.710;2023-03-01T11:13:34;7.18;;;6.13;;
25345;SDS011;13300;51.032;3.710;2023-03-01T11:16:03;7.25;;;6.00;;
25345;SDS011;13300;51.032;3.710;2023-03-01T11:18:32;11.32;;;6.50;;
25345;SDS011;13300;51.032;3.710;2023-03-01T11:20:59;10.27;;;6.88;;
25345;SDS011;13300;51.032;3.710;2023-03-01T11:23:27;8.48;;;6.00;;
25345;SDS011;13300;51.032;3.710;2023-03-01T11:26:04;8.07;;;6.15;;
25345;SDS011;13300;51.032;3.710;2023-03-01T11:28:33;8.88;;;5.78;;
25345;SDS011;13300;51.032;3.710;2023-03-01T11:31:04;7.00;;;6.30;;
25345;SDS011;13300;51.032;3.710;2023-03-01T11:33:38;9.40;;;6.07;;
25345;SDS011;13300;51.032;3.710;2023-03-01T11:42:18;11.48;;;6.40;;
25345;SDS011;13300;51.032;3.710;2023-03-01T11:45:06;8.13;;;5.25;;
25345;SDS011;13300;51.032;3.710;2023-03-01T11:47:41;8.32;;;6.05;;
25345;SDS011;13300;51.032;3.710;2023-03-01T11:59:11;8.40;;;5.03;;
25345;SDS011;13300;51.032;3.710;2023-03-01T12:20:58;8.32;;;5.65;;
25345;SDS011;13300;51.032;3.710;2023-03-01T12:51:06;6.38;;;5.13;;
25345;SDS011;13300;51.032;3.710;2023-03-01T12:53:39;6.47;;;4.40;;
25345;SDS011;13300;51.032;3.710;2023-03-01T12:56:16;7.20;;;4.38;;
25345;SDS011;13300;51.032;3.710;2023-03-01T12:59:17;6.63;;;5.05;;
25345;SDS011;13300;51.032;3.710;2023-03-01T13:01:59;7.70;;;4.75;;
25345;SDS011;13300;51.032;3.710;2023-03-01T13:05:00;9.23;;;4.75;;
25345;SDS011;13300;51.032;3.710;2023-03-01T13:10:43;6.22;;;4.88;;
25345;SDS011;13300;51.032;3.710;2023-03-01T13:15:43;7.53;;;4.78;;
25345;SDS011;13300;51.032;3.710;2023-03-01T13:23:31;7.72;;;5.20;;
25345;SDS011;13300;51.032;3.710;2023-03-01T13:26:01;9.85;;;5.50;;
25345;SDS011;13300;51.032;3.710;2023-03-01T13:33:47;9.73;;;6.55;;
25345;SDS011;13300;51.032;3.710;2023-03-01T13:39:04;6.43;;;5.47;;
25345;SDS011;13300;51.032;3.710;2023-03-01T13:44:52;6.57;;;4.43;;
25345;SDS011;13300;51.032;3.710;2023-03-01T13:47:18;8.80;;;5.53;;
25345;SDS011;13300;51.032;3.710;2023-03-01T13:49:56;8.43;;;5.45;;
25345;SDS011;13300;51.032;3.710;2023-03-01T13:52:31;10.38;;;5.55;;
25345;SDS011;13300;51.032;3.710;2023-03-01T13:55:03;7.88;;;5.20;;
25345;SDS011;13300;51.032;3.710;2023-03-01T14:00:04;6.80;;;5.13;;
25345;SDS011;13300;51.032;3.710;2023-03-01T14:02:32;9.13;;;5.53;;
25345;SDS011;13300;51.032;3.710;2023-03-01T14:04:59;7.30;;;5.40;;
25345;SDS011;13300;51.032;3.710;2023-03-01T14:07:26;7.13;;;5.28;;
25345;SDS011;13300;51.032;3.710;2023-03-01T14:12:26;9.43;;;5.22;;
25345;SDS011;13300;51.032;3.710;2023-03-01T14:18:08;6.97;;;5.40;;
25345;SDS011;13300;51.032;3.710;2023-03-01T14:20:39;9.98;;;6.35;;
25345;SDS011;13300;51.032;3.710;2023-03-01T14:23:09;11.35;;;6.15;;
25345;SDS011;13300;51.032;3.710;2023-03-01T14:25:49;9.93;;;6.25;;
25345;SDS011;13300;51.032;3.710;2023-03-01T14:28:31;11.10;;;6.28;;
25345;SDS011;13300;51.032;3.710;2023-03-01T14:31:02;9.45;;;5.93;;
25345;SDS011;13300;51.032;3.710;2023-03-01T14:38:40;8.43;;;6.10;;
25345;SDS011;13300;51.032;3.710;2023-03-01T14:43:44;8.18;;;5.95;;
25345;SDS011;13300;51.032;3.710;2023-03-01T14:46:23;11.93;;;6.18;;
25345;SDS011;13300;51.032;3.710;2023-03-01T14:49:19;9.20;;;5.70;;
25345;SDS011;13300;51.032;3.710;2023-03-01T14:52:17;9.10;;;5.53;;
25345;SDS011;13300;51.032;3.710;2023-03-01T14:54:46;7.53;;;5.55;;
25345;SDS011;13300;51.032;3.710;2023-03-01T14:57:19;9.20;;;5.70;;
25345;SDS011;13300;51.032;3.710;2023-03-01T14:59:51;11.00;;;6.07;;
25345;SDS011;13300;51.032;3.710;2023-03-01T15:02:24;9.43;;;5.95;;
25345;SDS011;13300;51.032;3.710;2023-03-01T15:04:52;9.68;;;6.60;;
25345;SDS011;13300;51.032;3.710;2023-03-01T15:07:26;11.30;;;6.00;;
25345;SDS011;13300;51.032;3.710;2023-03-01T15:09:56;9.60;;;6.00;;
25345;SDS011;13300;51.032;3.710;2023-03-01T15:12:25;10.45;;;6.00;;
25345;SDS011;13300;51.032;3.710;2023-03-01T15:14:54;9.32;;;5.88;;
25345;SDS011;13300;51.032;3.710;2023-03-01T15:17:23;11.13;;;6.18;;
25345;SDS011;13300;51.032;3.710;2023-03-01T15:19:55;8.60;;;6.07;;
25345;SDS011;13300;51.032;3.710;2023-03-01T15:22:21;9.57;;;6.10;;
25345;SDS011;13300;51.032;3.710;2023-03-01T15:24:50;11.75;;;5.35;;
25345;SDS011;13300;51.032;3.710;2023-03-01T15:27:17;9.60;;;6.13;;
25345;SDS011;13300;51.032;3.710;2023-03-01T15:30:00;7.47;;;5.22;;
25345;SDS011;13300;51.032;3.710;2023-03-01T15:32:29;8.15;;;5.72;;
25345;SDS011;13300;51.032;3.710;2023-03-01T15:34:57;9.07;;;5.97;;
25345;SDS011;13300;51.032;3.710;2023-03-01T15:37:43;8.45;;;6.05;;
25345;SDS011;13300;51.032;3.710;2023-03-01T15:42:46;8.70;;;5.82;;
25345;SDS011;13300;51.032;3.710;2023-03-01T15:47:43;8.20;;;5.72;;
25345;SDS011;13300;51.032;3.710;2023-03-01T15:50:26;12.25;;;5.70;;
25345;SDS011;13300;51.032;3.710;2023-03-01T15:52:54;9.95;;;6.07;;
25345;SDS011;13300;51.032;3.710;2023-03-01T15:55:24;10.55;;;6.07;;
25345;SDS011;13300;51.032;3.710;2023-03-01T15:58:04;9.95;;;6.13;;
25345;SDS011;13300;51.032;3.710;2023-03-01T16:00:35;9.88;;;6.45;;
25345;SDS011;13300;51.032;3.710;2023-03-01T16:03:01;8.90;;;6.07;;
25345;SDS011;13300;51.032;3.710;2023-03-01T16:05:30;10.50;;;6.22;;
25345;SDS011;13300;51.032;3.710;2023-03-01T16:07:57;9.90;;;6.32;;
25345;SDS011;13300;51.032;3.710;2023-03-01T16:10:23;14.55;;;7.65;;
25345;SDS011;13300;51.032;3.710;2023-03-01T16:12:50;9.77;;;7.20;;
25345;SDS011;13300;51.032;3.710;2023-03-01T16:15:27;10.02;;;6.72;;
25345;SDS011;13300;51.032;3.710;2023-03-01T16:17:58;9.32;;;6.50;;
25345;SDS011;13300;51.032;3.710;2023-03-01T16:20:24;11.80;;;6.80;;
25345;SDS011;13300;51.032;3.710;2023-03-01T16:22:53;10.15;;;6.93;;
25345;SDS011;13300;51.032;3.710;2023-03-01T16:25:19;9.60;;;6.75;;
25345;SDS011;13300;51.032;3.710;2023-03-01T16:27:48;10.48;;;7.25;;
25345;SDS011;13300;51.032;3.710;2023-03-01T16:30:16;11.90;;;7.47;;
25345;SDS011;13300;51.032;3.710;2023-03-01T16:32:46;11.30;;;7.50;;
25345;SDS011;13300;51.032;3.710;2023-03-01T16:35:13;11.32;;;7.47;;
25345;SDS011;13300;51.032;3.710;2023-03-01T16:37:44;12.90;;;7.10;;
25345;SDS011;13300;51.032;3.710;2023-03-01T16:40:17;11.32;;;6.78;;
25345;SDS011;13300;51.032;3.710;2023-03-01T16:42:48;10.77;;;6.93;;
25345;SDS011;13300;51.032;3.710;2023-03-01T16:45:17;9.38;;;6.90;;
25345;SDS011;13300;51.032;3.710;2023-03-01T16:47:43;14.73;;;7.45;;
25345;SDS011;13300;51.032;3.710;2023-03-01T16:50:09;12.02;;;6.72;;
25345;SDS011;13300;51.032;3.710;2023-03-01T16:52:35;10.30;;;6.90;;
25345;SDS011;13300;51.032;3.710;2023-03-01T16:55:03;9.25;;;6.88;;
25345;SDS011;13300;51.032;3.710;2023-03-01T16:57:29;10.48;;;6.80;;
25345;SDS011;13300;51.032;3.710;2023-03-01T16:59:55;10.13;;;6.78;;
25345;SDS011;13300;51.032;3.710;2023-03-01T17:02:21;11.52;;;7.45;;
25345;SDS011;13300;51.032;3.710;2023-03-01T17:04:54;12.48;;;7.82;;
25345;SDS011;13300;51.032;3.710;2023-03-01T17:07:21;12.15;;;6.88;;
25345;SDS011;13300;51.032;3.710;2023-03-01T17:09:47;14.88;;;7.32;;
25345;SDS011;13300;51.032;3.710;2023-03-01T17:12:13;11.23;;;7.68;;
25345;SDS011;13300;51.032;3.710;2023-03-01T17:14:41;15.23;;;7.70;;
25345;SDS011;13300;51.032;3.710;2023-03-01T17:17:08;10.35;;;7.50;;
25345;SDS011;13300;51.032;3.710;2023-03-01T17:19:34;11.82;;;7.22;;
25345;SDS011;13300;51.032;3.710;2023-03-01T17:22:05;16.40;;;7.85;;
25345;SDS011;13300;51.032;3.710;2023-03-01T17:24:34;12.75;;;8.90;;
25345;SDS011;13300;51.032;3.710;2023-03-01T17:27:01;14.40;;;9.00;;
25345;SDS011;13300;51.032;3.710;2023-03-01T17:29:28;13.98;;;7.85;;
25345;SDS011;13300;51.032;3.710;2023-03-01T17:31:54;13.30;;;7.70;;
25345;SDS011;13300;51.032;3.710;2023-03-01T17:34:20;12.93;;;7.97;;
25345;SDS011;13300;51.032;3.710;2023-03-01T17:36:47;12.73;;;8.07;;
25345;SDS011;13300;51.032;3.710;2023-03-01T17:39:14;11.30;;;7.25;;
25345;SDS011;13300;51.032;3.710;2023-03-01T17:41:41;12.77;;;6.75;;
25345;SDS011;13300;51.032;3.710;2023-03-01T17:44:08;13.73;;;7.22;;
25345;SDS011;13300;51.032;3.710;2023-03-01T17:46:36;17.73;;;9.63;;
25345;SDS011;13300;51.032;3.710;2023-03-01T17:49:02;14.50;;;8.23;;